createdAt,value
2023-01-23T00:02:57.401Z,102214.60
2023-01-23T00:07:56.693Z,102222.40
2023-01-23T00:12:57.724Z,102225.60
2023-01-23T00:17:58.270Z,102225.00
2023-01-23T00:22:57.580Z,102225.40
2023-01-23T00:27:56.723Z,102222.00
2023-01-23T00:32:56.456Z,102228.40
2023-01-23T00:37:59.507Z,102231.40
2023-01-23T00:43:00.034Z,102229.40
2023-01-23T00:47:59.131Z,102240.80
2023-01-23T00:52:58.465Z,102242.40
2023-01-23T00:57:58.230Z,102239.00
2023-01-23T01:02:57.269Z,102233.80
2023-01-23T01:07:57.198Z,102231.60
2023-01-23T01:12:56.795Z,102235.20
2023-01-23T01:17:56.279Z,102235.00
2023-01-23T01:22:56.804Z,102235.60
2023-01-23T01:27:56.212Z,102244.00
2023-01-23T01:32:58.888Z,102248.60
2023-01-23T01:37:58.080Z,102254.00
2023-01-23T01:43:02.416Z,102253.40
2023-01-23T01:48:01.868Z,102261.20
2023-01-23T01:53:01.935Z,102268.20
2023-01-23T01:58:01.627Z,102270.60
2023-01-23T02:03:06.510Z,102275.20
2023-01-23T02:08:14.945Z,102279.40
2023-01-23T02:13:33.818Z,102279.60
2023-01-23T02:18:37.704Z,102284.20
2023-01-23T02:23:53.504Z,102297.80
2023-01-23T02:28:57.438Z,102307.40
2023-01-23T02:34:02.372Z,102297.60
2023-01-23T02:39:16.658Z,102297.00
2023-01-23T02:44:26.508Z,102293.40
2023-01-23T02:49:29.622Z,102291.00
2023-01-23T02:54:31.847Z,102292.40
2023-01-23T02:59:51.285Z,102292.80
2023-01-23T03:04:50.601Z,102297.20
2023-01-23T03:09:49.971Z,102305.60
2023-01-23T03:14:54.283Z,102308.80
2023-01-23T03:19:54.088Z,102310.00
2023-01-23T03:24:54.282Z,102310.00
2023-01-23T03:30:10.984Z,102305.40
2023-01-23T03:35:14.293Z,102309.80
2023-01-23T03:40:39.612Z,102317.80
2023-01-23T03:45:39.059Z,102318.40
2023-01-23T03:50:39.343Z,102315.80
2023-01-23T03:55:39.003Z,102321.20
2023-01-23T04:00:38.434Z,102322.20
2023-01-23T04:05:38.626Z,102327.80
2023-01-23T04:10:37.987Z,102334.60
2023-01-23T04:15:43.255Z,102333.00
2023-01-23T04:20:44.746Z,102337.60
2023-01-23T04:25:43.577Z,102342.40
2023-01-23T04:30:46.921Z,102339.40
2023-01-23T04:36:01.726Z,102342.60
2023-01-23T04:41:02.352Z,102348.00
2023-01-23T04:46:03.354Z,102348.40
2023-01-23T04:51:29.059Z,102357.00
2023-01-23T04:56:28.368Z,102363.40
2023-01-23T05:01:28.470Z,102349.20
2023-01-23T05:06:31.243Z,102351.40
2023-01-23T05:11:31.487Z,102365.20
2023-01-23T05:16:32.611Z,102372.00
2023-01-23T05:21:57.799Z,102371.00
2023-01-23T05:26:59.804Z,102371.80
2023-01-23T05:32:01.775Z,102367.20
2023-01-23T05:37:10.450Z,102372.80
2023-01-23T05:42:12.428Z,102382.80
2023-01-23T05:47:30.215Z,102384.00
2023-01-23T05:52:30.046Z,102396.40
2023-01-23T05:57:29.587Z,102404.00
2023-01-23T06:02:48.495Z,102408.00
2023-01-23T06:07:56.974Z,102416.80
2023-01-23T06:12:56.789Z,102415.20
2023-01-23T06:17:56.335Z,102428.40
2023-01-23T06:22:57.163Z,102433.40
2023-01-23T06:27:56.602Z,102443.20
2023-01-23T06:32:57.342Z,102451.60
2023-01-23T06:38:03.758Z,102457.80
2023-01-23T06:43:03.642Z,102470.00
2023-01-23T06:48:03.661Z,102483.60
2023-01-23T06:53:03.171Z,102491.00
2023-01-23T06:58:03.184Z,102499.00
2023-01-23T07:03:23.632Z,102491.20
2023-01-23T07:08:23.502Z,102491.60
2023-01-23T07:13:22.585Z,102492.40
2023-01-23T07:18:23.169Z,102500.20
2023-01-23T07:23:23.790Z,102506.00
2023-01-23T07:28:23.029Z,102510.80
2023-01-23T07:33:22.077Z,102517.40
2023-01-23T07:38:23.566Z,102513.40
2023-01-23T07:43:23.252Z,102521.00
2023-01-23T07:48:22.502Z,102523.20
2023-01-23T07:53:21.906Z,102520.60
2023-01-23T07:58:21.144Z,102517.40
2023-01-23T08:03:21.041Z,102524.60
2023-01-23T08:08:20.659Z,102529.00
2023-01-23T08:13:20.694Z,102530.20
2023-01-23T08:18:20.191Z,102529.60
2023-01-23T08:23:19.433Z,102535.00
2023-01-23T08:28:18.563Z,102537.40
2023-01-23T08:33:23.384Z,102544.60
2023-01-23T08:38:24.676Z,102553.40
2023-01-23T08:43:24.724Z,102559.80
2023-01-23T08:48:26.121Z,102569.80
2023-01-23T08:53:25.615Z,102568.00
2023-01-23T08:58:25.113Z,102573.60
2023-01-23T09:03:24.651Z,102579.80
2023-01-23T09:08:24.174Z,102585.20
2023-01-23T09:13:23.681Z,102588.60
2023-01-23T09:18:25.160Z,102581.60
2023-01-23T09:23:26.919Z,102576.80
2023-01-23T09:28:26.390Z,102580.40
2023-01-23T09:33:27.390Z,102578.40
2023-01-23T09:38:27.429Z,102571.20
2023-01-23T09:43:37.273Z,102560.60
2023-01-23T09:48:47.773Z,102566.80
2023-01-23T09:53:47.035Z,102563.20
2023-01-23T09:59:02.770Z,102556.60
2023-01-23T10:04:05.006Z,102558.00
2023-01-23T10:09:32.146Z,102553.60
2023-01-23T10:15:08.251Z,102559.00
2023-01-23T10:20:40.122Z,102567.60
2023-01-23T10:25:43.159Z,102567.40
2023-01-23T10:30:48.311Z,102558.40
2023-01-23T10:35:53.904Z,102559.40
2023-01-23T10:41:12.471Z,102558.80
2023-01-23T10:46:19.171Z,102563.40
2023-01-23T10:51:52.162Z,102559.80
2023-01-23T10:57:00.013Z,102552.20
2023-01-23T11:02:22.589Z,102552.00
2023-01-23T11:07:27.145Z,102548.60
2023-01-23T11:12:29.488Z,102551.00
2023-01-23T11:17:36.266Z,102548.40
2023-01-23T11:23:01.024Z,102554.20
2023-01-23T11:28:05.630Z,102553.20
2023-01-23T11:33:14.574Z,102558.40
2023-01-23T11:38:30.239Z,102552.00
2023-01-23T11:43:29.834Z,102544.20
2023-01-23T11:48:59.322Z,102535.00
2023-01-23T11:54:18.409Z,102523.00
2023-01-23T12:00:00.124Z,102521.80
2023-01-23T12:05:39.437Z,102522.20
2023-01-23T12:10:56.122Z,102524.80
2023-01-23T12:16:11.839Z,102523.40
2023-01-23T12:21:23.215Z,102528.80
2023-01-23T12:26:25.763Z,102542.80
2023-01-23T12:31:43.067Z,102546.20
2023-01-23T12:37:14.146Z,102546.80
2023-01-23T12:42:22.974Z,102544.80
2023-01-23T12:47:28.996Z,102548.60
2023-01-23T12:52:37.314Z,102546.20
2023-01-23T12:57:58.949Z,102546.00
2023-01-23T13:03:21.840Z,102555.80
2023-01-23T13:08:37.856Z,102561.20
2023-01-23T13:13:38.219Z,102567.60
2023-01-23T13:18:52.255Z,102565.00
2023-01-23T13:24:13.050Z,102573.60
2023-01-23T13:29:52.845Z,102576.40
2023-01-23T13:34:52.523Z,102576.40
2023-01-23T13:40:17.109Z,102578.40
2023-01-23T13:45:31.546Z,102583.60
2023-01-23T14:22:44.914Z,102594.80
2023-01-23T14:27:52.899Z,102593.40
2023-01-23T14:32:53.456Z,102593.20
2023-01-23T14:37:57.027Z,102603.00
2023-01-23T14:43:03.924Z,102607.00
2023-01-23T14:48:07.285Z,102595.60
2023-01-23T14:53:13.265Z,102595.00
2023-01-23T14:58:20.841Z,102594.40
2023-01-23T15:03:41.169Z,102598.80
2023-01-23T15:08:41.464Z,102603.60
2023-01-23T15:13:50.523Z,102606.40
2023-01-23T15:19:01.558Z,102608.20
2023-01-23T15:24:32.860Z,102614.20
2023-01-23T15:29:33.412Z,102615.20
2023-01-23T15:34:35.995Z,102614.80
2023-01-23T15:39:53.178Z,102613.60
2023-01-23T15:44:52.984Z,102608.00
2023-01-23T15:49:54.854Z,102613.80
2023-01-23T15:54:58.224Z,102615.80
2023-01-23T15:59:57.955Z,102617.20
2023-01-23T16:04:57.604Z,102621.20
2023-01-23T16:09:58.051Z,102622.60
2023-01-23T16:15:00.247Z,102619.40
2023-01-23T16:20:06.296Z,102612.80
2023-01-23T16:25:05.856Z,102624.60
2023-01-23T16:30:05.255Z,102621.40
2023-01-23T16:35:05.483Z,102624.00
2023-01-23T16:40:06.147Z,102622.40
2023-01-23T16:45:11.050Z,102626.80
2023-01-23T16:50:14.482Z,102632.40
2023-01-23T16:55:27.230Z,102639.80
2023-01-23T17:00:34.753Z,102642.00
2023-01-23T17:05:34.249Z,102642.40
2023-01-23T17:10:45.502Z,102651.40
2023-01-23T17:15:46.895Z,102651.60
2023-01-23T17:20:46.434Z,102657.00
2023-01-23T17:25:59.774Z,102655.80
2023-01-23T17:31:02.881Z,102663.20
2023-01-23T17:36:04.764Z,102657.20
2023-01-23T17:41:06.679Z,102653.60
2023-01-23T17:46:08.395Z,102649.20
2023-01-23T17:51:11.185Z,102651.20
2023-01-23T17:56:13.399Z,102656.00
2023-01-23T18:01:23.905Z,102657.60
2023-01-23T18:06:30.515Z,102653.80
2023-01-23T18:11:30.883Z,102653.00
2023-01-23T18:16:39.958Z,102649.80
2023-01-23T18:21:47.907Z,102644.00
2023-01-23T18:27:15.958Z,102651.20
2023-01-23T18:32:43.828Z,102650.60
2023-01-23T18:37:58.832Z,102654.80
2023-01-23T18:43:18.754Z,102654.80
2023-01-23T18:48:25.649Z,102659.20
2023-01-23T18:53:47.754Z,102657.00
2023-01-23T18:59:11.689Z,102660.20
2023-01-23T19:04:18.079Z,102657.00
2023-01-23T19:09:25.052Z,102652.40
2023-01-23T19:14:47.990Z,102651.00
2023-01-23T19:20:02.030Z,102661.60
2023-01-23T19:25:05.894Z,102662.40
2023-01-23T19:30:11.128Z,102668.40
2023-01-23T19:35:14.224Z,102665.00
2023-01-23T19:40:20.231Z,102667.60
2023-01-23T19:45:23.342Z,102670.20
2023-01-23T19:50:29.777Z,102669.40
2023-01-23T19:55:35.287Z,102676.60
2023-01-23T20:00:37.445Z,102672.60
2023-01-23T20:05:38.085Z,102674.80
2023-01-23T20:10:37.546Z,102685.20
2023-01-23T20:15:38.227Z,102687.20
2023-01-23T20:20:42.507Z,102687.20
2023-01-23T20:25:42.645Z,102684.00
2023-01-23T20:30:43.319Z,102683.00
2023-01-23T20:35:44.134Z,102683.40
2023-01-23T20:40:43.794Z,102687.00
2023-01-23T20:45:51.043Z,102679.00
2023-01-23T20:50:56.280Z,102678.20
2023-01-23T20:56:00.519Z,102682.40
2023-01-23T21:01:00.776Z,102681.40
2023-01-23T21:06:01.324Z,102684.80
2023-01-23T21:11:00.358Z,102685.80
2023-01-23T21:16:06.123Z,102684.00
2023-01-23T21:21:10.811Z,102681.40
2023-01-23T21:26:10.486Z,102685.40
2023-01-23T21:31:18.021Z,102686.20
2023-01-23T21:36:22.763Z,102688.60
2023-01-23T21:41:25.265Z,102690.80
2023-01-23T21:46:51.580Z,102690.60
2023-01-23T21:51:52.828Z,102693.00
2023-01-23T21:56:57.750Z,102688.00
2023-01-23T22:02:17.382Z,102691.40
2023-01-23T22:07:18.459Z,102689.20
2023-01-23T22:12:18.445Z,102689.20
2023-01-23T22:17:18.290Z,102685.80
2023-01-23T22:22:19.809Z,102691.40
2023-01-23T22:27:18.697Z,102700.80
2023-01-23T22:32:18.950Z,102697.60
2023-01-23T22:37:20.434Z,102691.40
2023-01-23T22:42:22.026Z,102694.20
2023-01-23T22:47:21.563Z,102698.80
2023-01-23T22:52:21.168Z,102697.60
2023-01-23T22:57:20.274Z,102700.60
2023-01-23T23:02:20.020Z,102711.20
2023-01-23T23:07:19.256Z,102718.80
2023-01-23T23:12:18.764Z,102715.00
2023-01-23T23:17:18.879Z,102714.40
2023-01-23T23:22:18.273Z,102716.20
2023-01-23T23:27:17.965Z,102719.80
2023-01-23T23:32:19.432Z,102719.80
2023-01-23T23:37:20.166Z,102712.00
2023-01-23T23:42:18.880Z,102711.40
2023-01-23T23:47:18.529Z,102709.00
2023-01-23T23:52:17.765Z,102705.80
2023-01-23T23:57:17.216Z,102709.00
